createdAt,value
2022-10-22T00:01:10.450Z,12.52
2022-10-22T00:03:40.669Z,12.52
2022-10-22T00:06:08.938Z,12.51
2022-10-22T00:08:36.868Z,12.49
2022-10-22T00:11:12.647Z,12.47
2022-10-22T00:13:40.847Z,12.47
2022-10-22T00:16:09.649Z,12.46
2022-10-22T00:18:38.201Z,12.46
2022-10-22T00:21:07.183Z,12.47
2022-10-22T00:23:35.493Z,12.47
2022-10-22T00:26:03.355Z,12.47
2022-10-22T00:28:31.406Z,12.47
2022-10-22T00:31:01.037Z,12.46
2022-10-22T00:33:30.443Z,12.44
2022-10-22T00:35:59.049Z,12.44
2022-10-22T00:38:26.891Z,12.41
2022-10-22T00:40:54.915Z,12.39
2022-10-22T00:43:23.029Z,12.39
2022-10-22T00:45:51.087Z,12.39
2022-10-22T00:48:22.189Z,12.38
2022-10-22T00:50:56.496Z,12.38
2022-10-22T00:53:36.825Z,12.40
2022-10-22T00:56:05.645Z,12.42
2022-10-22T00:58:37.316Z,12.41
2022-10-22T01:01:07.133Z,12.41
2022-10-22T01:03:34.947Z,12.41
2022-10-22T01:06:05.146Z,12.40
2022-10-22T01:08:51.322Z,12.39
2022-10-22T01:11:47.451Z,12.36
2022-10-22T01:14:20.231Z,12.33
2022-10-22T01:17:13.869Z,12.28
2022-10-22T01:20:07.882Z,12.26
2022-10-22T01:22:52.953Z,12.25
2022-10-22T01:25:44.476Z,12.22
2022-10-22T01:28:31.248Z,12.22
2022-10-22T01:31:01.056Z,12.22
2022-10-22T01:33:31.176Z,12.23
2022-10-22T01:36:00.420Z,12.25
2022-10-22T01:38:29.189Z,12.24
2022-10-22T01:40:58.199Z,12.23
2022-10-22T01:43:25.966Z,12.19
2022-10-22T01:45:59.249Z,12.16
2022-10-22T01:48:53.520Z,12.16
2022-10-22T01:51:49.597Z,12.13
2022-10-22T01:54:40.300Z,12.09
2022-10-22T01:57:27.249Z,12.06
2022-10-22T02:00:06.760Z,12.04
2022-10-22T02:03:05.942Z,12.03
2022-10-22T02:05:46.216Z,12.04
2022-10-22T02:08:20.246Z,12.03
2022-10-22T02:10:49.538Z,12.04
2022-10-22T02:13:28.368Z,12.06
2022-10-22T02:15:59.209Z,12.09
2022-10-22T02:18:30.000Z,12.10
2022-10-22T02:21:00.090Z,12.10
2022-10-22T02:23:29.005Z,12.12
2022-10-22T02:26:12.072Z,12.13
2022-10-22T02:28:49.929Z,12.39
2022-10-22T02:31:26.344Z,12.72
2022-10-22T02:33:58.113Z,12.96
2022-10-22T02:36:26.271Z,13.16
2022-10-22T02:38:54.970Z,13.37
2022-10-22T02:41:23.738Z,13.58
2022-10-22T02:43:54.743Z,13.78
2022-10-22T02:46:24.089Z,13.91
2022-10-22T02:48:51.944Z,14.02
2022-10-22T02:51:20.088Z,14.10
2022-10-22T02:53:47.852Z,14.16
2022-10-22T02:56:16.150Z,14.24
2022-10-22T02:58:43.942Z,14.26
2022-10-22T03:01:15.272Z,14.26
2022-10-22T03:03:44.107Z,14.28
2022-10-22T03:06:12.285Z,14.34
2022-10-22T03:08:40.672Z,14.34
2022-10-22T03:11:09.089Z,14.33
2022-10-22T03:13:37.139Z,14.32
2022-10-22T03:16:05.200Z,14.28
2022-10-22T03:18:32.993Z,14.24
2022-10-22T03:21:36.816Z,14.20
2022-10-22T03:24:10.718Z,14.17
2022-10-22T03:26:41.043Z,14.13
2022-10-22T03:29:11.469Z,14.10
2022-10-22T03:31:39.494Z,14.07
2022-10-22T03:34:07.338Z,14.02
2022-10-22T03:36:35.230Z,13.99
2022-10-22T03:39:04.831Z,13.96
2022-10-22T03:41:33.209Z,13.98
2022-10-22T03:44:03.263Z,13.99
2022-10-22T03:46:31.080Z,13.94
2022-10-22T03:48:59.241Z,13.90
2022-10-22T03:51:28.608Z,13.90
2022-10-22T03:53:56.492Z,13.94
2022-10-22T03:56:24.826Z,13.95
2022-10-22T03:58:57.041Z,13.95
2022-10-22T04:01:25.739Z,13.96
2022-10-22T04:03:54.107Z,13.94
2022-10-22T04:06:22.392Z,13.95
2022-10-22T04:08:50.541Z,13.98
2022-10-22T04:11:18.376Z,14.00
2022-10-22T04:13:46.430Z,13.99
2022-10-22T04:16:21.469Z,14.02
2022-10-22T04:18:51.058Z,14.03
2022-10-22T04:21:19.768Z,14.09
2022-10-22T04:23:50.031Z,14.11
2022-10-22T04:26:19.282Z,14.11
2022-10-22T04:28:49.591Z,14.12
2022-10-22T04:31:22.799Z,14.12
2022-10-22T04:33:55.863Z,14.12
2022-10-22T04:36:25.447Z,14.14
2022-10-22T04:38:56.066Z,14.12
2022-10-22T04:41:25.819Z,14.13
2022-10-22T04:43:55.140Z,14.16
2022-10-22T04:46:23.845Z,14.16
2022-10-22T04:48:52.274Z,14.13
2022-10-22T04:51:24.174Z,14.13
2022-10-22T04:53:52.418Z,14.18
2022-10-22T04:56:25.215Z,14.19
2022-10-22T04:58:59.423Z,14.18
2022-10-22T05:01:30.934Z,14.16
2022-10-22T05:04:01.048Z,14.18
2022-10-22T05:06:31.444Z,14.18
2022-10-22T05:09:05.813Z,14.17
2022-10-22T05:11:38.783Z,14.16
2022-10-22T05:14:07.792Z,14.17
2022-10-22T05:16:38.042Z,14.19
2022-10-22T05:19:07.528Z,14.18
2022-10-22T05:21:35.850Z,14.16
2022-10-22T05:24:04.197Z,14.20
2022-10-22T05:26:32.474Z,14.21
2022-10-22T05:29:00.296Z,14.21
2022-10-22T05:31:29.228Z,14.22
2022-10-22T05:33:57.233Z,14.25
2022-10-22T05:36:25.215Z,14.30
2022-10-22T05:38:53.280Z,14.34
2022-10-22T05:41:25.675Z,14.36
2022-10-22T05:43:58.427Z,14.39
2022-10-22T05:46:31.173Z,14.44
2022-10-22T05:49:02.293Z,14.47
2022-10-22T05:51:32.378Z,14.51
2022-10-22T05:54:02.541Z,14.56
2022-10-22T05:56:32.162Z,14.61
2022-10-22T05:59:00.960Z,14.67
2022-10-22T06:01:31.569Z,14.71
2022-10-22T06:04:01.976Z,14.76
2022-10-22T06:06:47.095Z,14.80
2022-10-22T06:12:09.204Z,14.84
2022-10-22T06:14:37.203Z,14.89
2022-10-22T06:17:05.281Z,14.95
2022-10-22T06:19:33.331Z,14.99
2022-10-22T06:22:01.045Z,14.99
2022-10-22T06:24:28.852Z,15.02
2022-10-22T06:26:56.711Z,15.06
2022-10-22T06:29:24.930Z,15.15
2022-10-22T06:31:52.768Z,15.23
2022-10-22T06:34:20.797Z,15.30
2022-10-22T06:36:48.664Z,15.39
2022-10-22T06:39:18.028Z,15.40
2022-10-22T06:41:46.966Z,15.47
2022-10-22T06:44:20.029Z,15.55
2022-10-22T06:46:52.413Z,15.65
2022-10-22T06:49:21.069Z,15.70
2022-10-22T06:51:53.766Z,15.75
2022-10-22T06:54:22.902Z,15.75
2022-10-22T06:56:51.051Z,15.85
2022-10-22T06:59:19.124Z,15.93
2022-10-22T07:01:47.227Z,16.05
2022-10-22T07:04:15.478Z,16.15
2022-10-22T07:06:43.642Z,16.21
2022-10-22T07:09:11.626Z,16.29
2022-10-22T07:11:45.581Z,16.39
2022-10-22T07:14:16.761Z,16.33
2022-10-22T07:16:46.813Z,16.38
2022-10-22T07:19:14.966Z,16.42
2022-10-22T07:21:42.931Z,16.49
2022-10-22T07:24:10.888Z,16.58
2022-10-22T07:26:39.041Z,16.59
2022-10-22T07:29:06.952Z,16.64
2022-10-22T07:31:35.257Z,16.72
2022-10-22T07:34:03.197Z,16.75
2022-10-22T07:36:31.230Z,16.82
2022-10-22T07:38:59.903Z,16.78
2022-10-22T07:41:30.385Z,16.79
2022-10-22T07:43:58.272Z,16.84
2022-10-22T07:46:26.730Z,16.94
2022-10-22T07:48:54.945Z,17.00
2022-10-22T07:51:23.084Z,17.04
2022-10-22T07:53:51.096Z,17.12
2022-10-22T07:56:18.907Z,17.15
2022-10-22T07:58:46.740Z,17.18
2022-10-22T08:01:14.591Z,17.22
2022-10-22T08:03:42.618Z,17.29
2022-10-22T08:06:13.818Z,17.29
2022-10-22T08:08:43.695Z,17.29
2022-10-22T08:11:11.712Z,17.31
2022-10-22T08:13:44.109Z,17.36
2022-10-22T08:16:13.975Z,17.35
2022-10-22T08:18:42.249Z,17.39
2022-10-22T08:21:11.636Z,17.43
2022-10-22T08:23:39.473Z,17.48
2022-10-22T08:26:07.369Z,17.54
2022-10-22T08:28:37.170Z,17.50
2022-10-22T08:31:07.963Z,17.53
2022-10-22T08:33:36.789Z,17.56
2022-10-22T08:36:05.477Z,17.53
2022-10-22T08:38:35.192Z,17.53
2022-10-22T08:41:13.519Z,17.58
2022-10-22T08:44:00.429Z,17.70
2022-10-22T08:46:46.548Z,17.80
2022-10-22T08:49:21.920Z,17.90
2022-10-22T08:51:49.717Z,18.01
2022-10-22T08:54:28.886Z,18.10
2022-10-22T08:57:09.017Z,18.24
2022-10-22T09:00:11.880Z,18.38
2022-10-22T09:03:07.527Z,18.48
2022-10-22T09:08:20.735Z,18.77
2022-10-22T09:11:06.142Z,18.87
2022-10-22T09:13:33.966Z,18.89
2022-10-22T09:16:12.146Z,18.93
2022-10-22T09:18:49.426Z,19.00
2022-10-22T09:21:33.129Z,19.09
2022-10-22T09:24:17.171Z,19.13
2022-10-22T09:26:45.145Z,19.17
2022-10-22T09:29:20.464Z,19.28
2022-10-22T09:31:48.261Z,19.37
2022-10-22T09:34:21.458Z,19.44
2022-10-22T09:36:58.900Z,19.53
2022-10-22T09:39:34.720Z,19.60
2022-10-22T09:42:02.863Z,19.65
2022-10-22T09:44:35.099Z,19.71
2022-10-22T09:47:08.222Z,19.82
2022-10-22T09:49:36.909Z,19.92
2022-10-22T09:52:26.245Z,20.01
2022-10-22T09:54:54.190Z,20.08
2022-10-22T09:57:22.740Z,20.16
2022-10-22T09:59:54.190Z,20.25
2022-10-22T10:02:38.088Z,20.30
2022-10-22T10:05:08.452Z,20.36
2022-10-22T10:07:37.145Z,20.36
2022-10-22T10:10:19.901Z,20.36
2022-10-22T10:12:57.446Z,20.36
2022-10-22T10:15:37.163Z,20.40
2022-10-22T10:18:08.431Z,20.40
2022-10-22T10:20:43.526Z,20.37
2022-10-22T10:23:30.548Z,20.32
2022-10-22T10:26:17.404Z,20.22
2022-10-22T10:29:12.749Z,20.20
2022-10-22T10:31:43.789Z,20.28
2022-10-22T10:34:37.998Z,20.30
2022-10-22T10:37:26.479Z,20.28
2022-10-22T10:40:13.240Z,20.29
2022-10-22T10:42:51.999Z,20.27
2022-10-22T10:45:32.452Z,20.24
2022-10-22T10:48:38.605Z,20.23
2022-10-22T10:51:18.438Z,20.20
2022-10-22T10:54:30.787Z,20.21
2022-10-22T10:57:32.852Z,20.22
2022-10-22T11:00:07.399Z,20.24
2022-10-22T11:02:50.587Z,20.29
2022-10-22T11:05:50.439Z,20.30
2022-10-22T11:08:32.698Z,20.31
2022-10-22T11:11:23.231Z,20.36
2022-10-22T11:13:57.553Z,20.44
2022-10-22T11:16:32.703Z,20.47
2022-10-22T11:19:50.389Z,20.49
2022-10-22T11:22:28.346Z,20.51
2022-10-22T11:25:19.421Z,20.51
2022-10-22T11:27:59.816Z,20.50
2022-10-22T11:30:36.563Z,20.55
2022-10-22T11:33:11.352Z,20.62
2022-10-22T11:35:42.364Z,20.68
2022-10-22T11:38:16.119Z,20.72
2022-10-22T11:40:52.447Z,20.77
2022-10-22T11:43:48.237Z,20.75
2022-10-22T11:46:16.251Z,20.78
2022-10-22T11:48:44.613Z,20.77
2022-10-22T11:51:39.265Z,20.73
2022-10-22T11:54:31.249Z,20.69
2022-10-22T11:57:26.460Z,20.66
2022-10-22T11:59:58.806Z,20.66
2022-10-22T12:02:40.981Z,20.66
2022-10-22T12:05:22.113Z,20.68
2022-10-22T12:08:16.608Z,20.70
2022-10-22T12:11:04.945Z,20.74
2022-10-22T12:14:09.776Z,20.78
2022-10-22T12:16:56.263Z,20.78
2022-10-22T12:19:26.962Z,20.76
2022-10-22T12:21:59.042Z,20.76
2022-10-22T12:24:32.139Z,20.73
2022-10-22T12:27:00.172Z,20.68
2022-10-22T12:29:28.647Z,20.65
2022-10-22T12:31:57.894Z,20.62
2022-10-22T12:34:25.690Z,20.65
2022-10-22T12:36:54.523Z,20.65
2022-10-22T12:39:26.717Z,20.62
2022-10-22T12:41:55.133Z,20.57
2022-10-22T12:44:22.877Z,20.54
2022-10-22T12:46:54.438Z,20.54
2022-10-22T12:49:41.360Z,20.53
2022-10-22T12:52:17.991Z,20.52
2022-10-22T12:54:52.604Z,20.47
2022-10-22T12:57:21.897Z,20.41
2022-10-22T12:59:51.935Z,20.37
2022-10-22T13:02:22.518Z,20.33
2022-10-22T13:05:09.477Z,20.32
2022-10-22T13:07:44.402Z,20.33
2022-10-22T13:10:20.118Z,20.35
2022-10-22T13:12:55.474Z,20.36
2022-10-22T13:15:32.150Z,20.36
2022-10-22T13:18:16.888Z,20.34
2022-10-22T13:20:52.158Z,20.32
2022-10-22T13:23:22.903Z,20.28
2022-10-22T13:26:14.361Z,20.24
2022-10-22T13:28:43.646Z,20.20
2022-10-22T13:31:17.530Z,20.17
2022-10-22T13:33:51.393Z,20.15
2022-10-22T13:36:19.600Z,20.13
2022-10-22T13:38:47.730Z,20.14
2022-10-22T13:41:33.386Z,20.11
2022-10-22T13:44:01.127Z,20.09
2022-10-22T13:46:29.501Z,20.06
2022-10-22T13:49:00.099Z,20.03
2022-10-22T13:51:34.955Z,19.98
2022-10-22T13:54:06.943Z,19.97
2022-10-22T13:56:34.880Z,19.99
2022-10-22T13:59:02.919Z,19.98
2022-10-22T14:01:31.024Z,19.98
2022-10-22T14:04:02.011Z,19.97
2022-10-22T14:06:31.871Z,19.94
2022-10-22T14:09:04.499Z,19.93
2022-10-22T14:11:32.953Z,19.89
2022-10-22T14:14:03.525Z,19.87
2022-10-22T14:16:33.183Z,19.87
2022-10-22T14:19:02.655Z,19.86
2022-10-22T14:21:35.160Z,19.85
2022-10-22T14:24:04.482Z,19.81
2022-10-22T14:26:35.079Z,19.79
2022-10-22T14:29:09.416Z,19.78
2022-10-22T14:34:15.914Z,19.75
2022-10-22T14:36:44.370Z,19.71
2022-10-22T14:39:13.965Z,19.67
2022-10-22T14:41:42.504Z,19.65
2022-10-22T14:44:14.578Z,19.65
2022-10-22T14:46:44.425Z,19.65
2022-10-22T14:49:13.909Z,19.66
2022-10-22T14:51:42.130Z,19.64
2022-10-22T14:54:10.144Z,19.63
2022-10-22T14:59:10.768Z,19.59
2022-10-22T15:01:39.571Z,19.58
2022-10-22T15:04:07.572Z,19.57
2022-10-22T15:06:36.219Z,19.56
2022-10-22T15:09:04.123Z,19.56
2022-10-22T15:11:32.248Z,19.53
2022-10-22T15:14:00.077Z,19.51
2022-10-22T15:16:27.932Z,19.48
2022-10-22T15:18:57.161Z,19.46
2022-10-22T15:21:24.990Z,19.43
2022-10-22T15:23:55.591Z,19.39
2022-10-22T15:26:23.445Z,19.35
2022-10-22T15:28:51.556Z,19.33
2022-10-22T15:31:44.412Z,19.32
2022-10-22T15:34:13.494Z,19.30
2022-10-22T15:36:41.603Z,19.29
2022-10-22T15:39:10.411Z,19.27
2022-10-22T15:41:38.318Z,19.26
2022-10-22T15:44:06.388Z,19.24
2022-10-22T15:46:35.761Z,19.23
2022-10-22T15:49:03.679Z,19.24
2022-10-22T15:51:31.669Z,19.24
2022-10-22T15:53:59.630Z,19.25
2022-10-22T15:56:29.452Z,19.25
2022-10-22T15:59:03.989Z,19.25
2022-10-22T16:01:34.457Z,19.26
2022-10-22T16:04:03.194Z,19.25
2022-10-22T16:06:43.626Z,19.24
2022-10-22T16:09:17.464Z,19.23
2022-10-22T16:11:46.270Z,19.22
2022-10-22T16:14:16.311Z,19.23
2022-10-22T16:16:46.608Z,19.23
2022-10-22T16:19:15.393Z,19.23
2022-10-22T16:21:44.732Z,19.25
2022-10-22T16:24:13.458Z,19.25
2022-10-22T16:26:41.213Z,19.27
2022-10-22T16:29:11.423Z,19.28
2022-10-22T16:31:41.240Z,19.29
2022-10-22T16:34:09.080Z,19.31
2022-10-22T16:36:37.364Z,19.31
2022-10-22T16:39:06.047Z,19.32
2022-10-22T16:41:37.196Z,19.35
2022-10-22T16:44:07.781Z,19.35
2022-10-22T16:46:38.746Z,19.38
2022-10-22T16:49:07.634Z,19.40
2022-10-22T16:51:36.335Z,19.42
2022-10-22T16:54:06.938Z,19.43
2022-10-22T16:56:37.590Z,19.44
2022-10-22T16:59:06.721Z,19.46
2022-10-22T17:01:39.547Z,19.47
2022-10-22T17:04:09.284Z,19.49
2022-10-22T17:06:37.356Z,19.49
2022-10-22T17:09:05.447Z,19.49
2022-10-22T17:11:37.041Z,19.48
2022-10-22T17:14:06.956Z,19.48
2022-10-22T17:16:34.798Z,19.49
2022-10-22T17:19:03.848Z,19.49
2022-10-22T17:21:31.689Z,19.50
2022-10-22T17:23:59.729Z,19.52
2022-10-22T17:26:27.718Z,19.52
2022-10-22T17:28:56.065Z,19.53
2022-10-22T17:31:30.229Z,19.52
2022-10-22T17:33:59.892Z,19.50
2022-10-22T17:36:31.846Z,19.50
2022-10-22T17:39:06.112Z,19.51
2022-10-22T17:41:36.557Z,19.47
2022-10-22T17:44:07.056Z,19.45
2022-10-22T17:46:35.108Z,19.45
2022-10-22T17:49:06.974Z,19.45
2022-10-22T17:51:35.079Z,19.43
2022-10-22T17:54:05.971Z,19.37
2022-10-22T17:56:37.700Z,19.34
2022-10-22T17:59:06.483Z,19.31
2022-10-22T18:01:36.242Z,19.31
2022-10-22T18:04:06.888Z,19.31
2022-10-22T18:06:35.206Z,19.31
2022-10-22T18:09:18.336Z,19.28
2022-10-22T18:11:52.071Z,19.25
2022-10-22T18:14:22.738Z,19.23
2022-10-22T18:16:50.976Z,19.18
2022-10-22T18:19:23.211Z,19.13
2022-10-22T18:21:51.114Z,19.05
2022-10-22T18:24:19.205Z,19.00
2022-10-22T18:26:47.210Z,18.93
2022-10-22T18:29:18.181Z,18.87
2022-10-22T18:31:47.696Z,18.81
2022-10-22T18:34:18.914Z,18.80
2022-10-22T18:36:49.560Z,18.76
2022-10-22T18:39:18.269Z,18.69
2022-10-22T18:41:46.249Z,18.66
2022-10-22T18:44:15.426Z,18.61
2022-10-22T18:46:43.705Z,18.57
2022-10-22T18:49:16.645Z,18.49
2022-10-22T18:51:46.484Z,18.38
2022-10-22T18:54:23.527Z,18.32
2022-10-22T18:56:52.982Z,18.26
2022-10-22T18:59:23.297Z,18.18
2022-10-22T19:01:55.581Z,18.13
2022-10-22T19:04:23.436Z,18.08
2022-10-22T19:06:51.313Z,17.96
2022-10-22T19:09:19.507Z,17.87
2022-10-22T19:11:47.356Z,17.80
2022-10-22T19:14:19.540Z,17.73
2022-10-22T19:16:48.161Z,17.67
2022-10-22T19:19:18.937Z,17.61
2022-10-22T19:21:47.609Z,17.53
2022-10-22T19:24:18.046Z,17.44
2022-10-22T19:26:46.472Z,17.30
2022-10-22T19:29:17.524Z,17.17
2022-10-22T19:31:45.891Z,17.07
2022-10-22T19:34:14.407Z,16.99
2022-10-22T19:36:42.338Z,16.94
2022-10-22T19:39:10.397Z,16.89
2022-10-22T19:41:39.010Z,16.84
2022-10-22T19:44:06.921Z,16.78
2022-10-22T19:46:34.711Z,16.70
2022-10-22T19:49:03.483Z,16.66
2022-10-22T19:51:34.092Z,16.63
2022-10-22T19:54:08.218Z,16.57
2022-10-22T19:56:37.950Z,16.52
2022-10-22T19:59:05.989Z,16.48
2022-10-22T20:01:34.222Z,16.42
2022-10-22T20:04:02.377Z,16.39
2022-10-22T20:06:30.736Z,16.35
2022-10-22T20:08:59.448Z,16.31
2022-10-22T20:11:29.669Z,16.30
2022-10-22T20:13:58.627Z,16.28
2022-10-22T20:16:30.118Z,16.18
2022-10-22T20:19:03.858Z,16.11
2022-10-22T20:21:32.461Z,16.04
2022-10-22T20:24:00.940Z,15.98
2022-10-22T20:26:29.500Z,15.93
2022-10-22T20:28:58.628Z,15.86
2022-10-22T20:31:29.487Z,15.81
2022-10-22T20:33:59.711Z,15.71
2022-10-22T20:36:29.702Z,15.65
2022-10-22T20:39:04.070Z,15.63
2022-10-22T20:41:34.102Z,15.57
2022-10-22T20:44:02.087Z,15.52
2022-10-22T20:46:32.276Z,15.48
2022-10-22T20:49:06.609Z,15.45
2022-10-22T20:51:37.975Z,15.42
2022-10-22T20:54:07.485Z,15.41
2022-10-22T20:56:38.220Z,15.40
2022-10-22T20:59:08.194Z,15.30
2022-10-22T21:01:39.874Z,15.20
2022-10-22T21:04:08.299Z,15.08
2022-10-22T21:06:41.542Z,15.03
2022-10-22T21:09:11.419Z,15.01
2022-10-22T21:11:40.907Z,15.03
2022-10-22T21:14:10.721Z,14.94
2022-10-22T21:16:49.979Z,14.91
2022-10-22T21:19:22.970Z,14.77
2022-10-22T21:21:51.205Z,14.64
2022-10-22T21:24:19.834Z,14.59
2022-10-22T21:26:48.039Z,14.53
2022-10-22T21:29:15.948Z,14.49
2022-10-22T21:31:44.752Z,14.37
2022-10-22T21:34:13.841Z,14.29
2022-10-22T21:36:42.844Z,14.21
2022-10-22T21:39:12.441Z,14.20
2022-10-22T21:41:40.351Z,14.19
2022-10-22T21:44:08.171Z,14.15
2022-10-22T21:46:36.130Z,14.14
2022-10-22T21:49:04.494Z,14.17
2022-10-22T21:51:35.227Z,14.17
2022-10-22T21:54:03.228Z,14.16
2022-10-22T21:56:34.661Z,14.15
2022-10-22T21:59:04.627Z,14.14
2022-10-22T22:01:33.222Z,14.07
2022-10-22T22:04:01.652Z,14.00
2022-10-22T22:06:33.486Z,13.97
2022-10-22T22:09:04.354Z,13.96
2022-10-22T22:11:32.979Z,13.94
2022-10-22T22:14:01.201Z,13.99
2022-10-22T22:16:31.986Z,14.03
2022-10-22T22:19:02.133Z,14.06
2022-10-22T22:21:30.877Z,14.11
2022-10-22T22:23:59.360Z,14.11
2022-10-22T22:26:29.862Z,14.13
2022-10-22T22:29:00.032Z,14.17
2022-10-22T22:31:31.121Z,14.17
2022-10-22T22:34:10.422Z,14.19
2022-10-22T22:36:41.410Z,14.23
2022-10-22T22:39:13.492Z,14.25
2022-10-22T22:41:42.467Z,14.28
2022-10-22T22:44:10.595Z,14.27
2022-10-22T22:46:38.657Z,14.24
2022-10-22T22:49:07.234Z,14.26
2022-10-22T22:51:35.385Z,14.25
2022-10-22T22:54:03.514Z,14.25
2022-10-22T22:56:34.999Z,14.27
2022-10-22T22:59:05.169Z,14.27
2022-10-22T23:01:39.069Z,14.27
2022-10-22T23:04:11.212Z,14.28
2022-10-22T23:06:40.265Z,14.27
2022-10-22T23:09:11.331Z,14.25
2022-10-22T23:11:40.923Z,14.23
2022-10-22T23:14:12.512Z,14.24
2022-10-22T23:16:45.432Z,14.27
2022-10-22T23:19:15.575Z,14.26
2022-10-22T23:22:01.460Z,14.24
2022-10-22T23:24:29.754Z,14.25
2022-10-22T23:27:02.359Z,14.26
2022-10-22T23:29:32.665Z,14.27
2022-10-22T23:32:03.353Z,14.28
2022-10-22T23:34:31.862Z,14.27
2022-10-22T23:37:00.160Z,14.27
2022-10-22T23:39:28.972Z,14.28
2022-10-22T23:41:58.242Z,14.27
2022-10-22T23:44:26.142Z,14.28
2022-10-22T23:46:55.163Z,14.29
2022-10-22T23:49:23.091Z,14.34
2022-10-22T23:51:50.851Z,14.34
2022-10-22T23:54:19.305Z,14.29
2022-10-22T23:56:47.382Z,14.30
2022-10-22T23:59:16.104Z,14.27
